メインページ
METAR-TAF:

METAR-TAF

空港 :

Prince George, ブリティッシュコロンビア州, カナダ

緯度: 53-53N, 経度: 122-41W, 海抜: 691m

現時点の気象観測

当レポートは57分前の02:00(UTC)に作成
の風 9kt
気温 8°C
湿度 49%
気圧 1016 hPa
視程: 14.5km
晴天

METAR: CYXS 200200Z AUTO 17009KT 9SM CLR 08/M02 A2999 RMK SLP185

時間: 19:57 (02:57 UTC)

予報

当レポートは2時間17分前の00:40(UTC)に作成
予報は20日の 01時(UTC)から 20日の 13時(UTC)まで有効
南/南西の風 15kt
視程: 10km
高度6000ftの雲は散在している
高度12000ftの曇り
20日の 01時(UTC)から 20日の 09時(UTC)まで一時的に
視程: 10km
高度6000ftの千切れ雲あり
高度12000ftの曇り
小雨
20日の 03時(UTC)から 20日の 05時(UTC)まで徐々に
の風 6kt
20日の 0900時(UTC)から
の風 5kt
視程: 10km
高度10000ftの千切れ雲あり

TAF: CYXS 200040Z 2001/2013 20015KT P6SM SCT060 OVC120 TEMPO 2001/2009 P6SM -RA BKN060 OVC120 BECMG 2003/2005 19006KT FM200900 18005KT P6SM BKN100 RMK FCST BASED ON AUTO OBS. NXT FCST BY 200700Z

4,000以上の空港の気象観測と天気予報(METAR報とTAF報)

利用可能な観測所は地図上に黄色い丸と赤い丸で示す。

丸の上にカーソルを重ねると観測所名を参照できる。

次にクリックすると気象観測と天気予報を参照できる。

マップの切り替え:黒色「×」印の緑ボタンをクリックして拡大、「-」印の緑ボタンをクリックして縮小、緑色の三角印をクリックして隣りの地図に切り替え


METAR-TAF: